Miami, Florida
Traffic Map
Current Weather Conditions
Miami, Florida
Scattered Clouds
Scattered Clouds
81°
Feels Like: 87°
Wind Chill: 81° Ceiling: Unl
Heat Index: 87° Visibility: 10mi
Dew Point: 75° Wind: 0mph
Humidity: 82% Direction: ° ()
Pressure: 30in Gusts: 0mph
Raw Report DataKMIA 200753Z 00000KT 10SM FEW050 SCT250 27/24 A3000 RMK AO2 SLP160 98443 T02720239
Traffic Incident Summary
Active as of:
Severity:
Category:
InformationThere was an issue retrieving the traffic information for this location. Please try a different location or try again shortly.
Advertisements
Track Severe Weather on mobile